Time;durP1;ratioP1;P1;durP2;ratioP2;P2;SDS_P1;SDS_P2;PMS_P1;PMS_P2;Temp;Humidity;BMP_temperature;BMP_pressure;BME280_temperature;BME280_humidity;BME280_pressure;Samples;Min_cycle;Max_cycle;Signal;HPM_P1;HPM_P2
2022/08/19 00:07:25;;;;;;;;;;;;;;;;;;21079982;28;19924;-54
2022/08/19 00:17:28;;;;;;;;;;;;;;;;;;21079902;28;19978;-75
2022/08/19 00:27:33;;;;;;;;;;;;;;;;;;21078785;28;19970;-73
2022/08/19 00:37:35;;;;;;;;;;;;;;;;;;21079331;28;19924;-55
2022/08/19 00:47:37;;;;;;;;;;;;;;;;;;21080027;28;19928;-74
2022/08/19 00:57:44;;;;;;;;;;;;;;;;;;21078774;28;20362;-75
2022/08/19 01:07:55;;;;;;;;;;;;;;;;;;21077560;28;19924;-74
2022/08/19 01:17:56;;;;;;;;;;;;;;;;;;21078239;28;20299;-74
2022/08/19 01:27:58;;;;;;;;;;;;;;;;;;21076779;28;19924;-75
2022/08/19 01:38:09;;;;;;;;;;;;;;;;;;21086984;28;19932;-54
2022/08/19 01:48:31;;;;;;;;;;;;;;;;;;21091919;28;20006;-54
2022/08/19 01:58:48;;;;;;;;;;;;;;;;;;21090330;28;19931;-66
2022/08/19 02:09:00;;;;;;;;;;;;;;;;;;21091033;28;19974;-63
2022/08/19 02:19:10;;;;;;;;;;;;;;;;;;21106711;28;19924;-71
2022/08/19 02:29:27;;;;;;;;;;;;;;;;;;21090206;28;20007;-71
2022/08/19 02:39:43;;;;;;;;;;;;;;;;;;21087120;28;19924;-75
2022/08/19 02:50:02;;;;;;;;;;;;;;;;;;21085689;28;19928;-60
2022/08/19 03:00:12;;;;;;;;;;;;;;;;;;21085726;28;19924;-74
2022/08/19 03:10:36;;;;;;;;;;;;;;;;;;21085212;28;19924;-73
2022/08/19 03:20:58;;;;;;;;;;;;;;;;;;21083145;28;19981;-74
2022/08/19 03:31:11;;;;;;;;;;;;;;;;;;21084196;28;20326;-63
2022/08/19 03:41:21;;;;;;;;;;;;;;;;;;21084135;28;20015;-74
2022/08/19 03:51:25;;;;;;;;;;;;;;;;;;21092075;28;19978;-71
2022/08/19 04:01:32;;;;;;;;;;;;;;;;;;21093885;28;19979;-72
2022/08/19 04:11:40;;;;;;;;;;;;;;;;;;21102912;28;19928;-73
2022/08/19 04:21:44;;;;;;;;;;;;;;;;;;21081998;28;19924;-54
2022/08/19 04:31:47;;;;;;;;;;;;;;;;;;21083011;28;19924;-74
2022/08/19 04:52:12;;;;;;;;;;;;;;;;;;21080871;28;19947;-74
2022/08/19 05:02:14;;;;;;;;;;;;;;;;;;21078264;28;19984;-71
2022/08/19 05:12:16;;;;;;;;;;;;;;;;;;21089446;28;19924;-74
2022/08/19 05:22:37;;;;;;;;;;;;;;;;;;21092747;28;19980;-76
2022/08/19 05:32:38;;;;;;;;;;;;;;;;;;21092142;28;20014;-70
2022/08/19 05:42:40;;;;;;;;;;;;;;;;;;21091814;28;19971;-71
2022/08/19 05:52:41;;;;;;;;;;;;;;;;;;21090293;28;19968;-76
2022/08/19 06:02:45;;;;;;;;;;;;;;;;;;21089561;28;19928;-75
2022/08/19 06:12:47;;;;;;;;;;;;;;;;;;21092758;28;19924;-54
2022/08/19 06:22:52;;;;;;;;;;;;;;;;;;21097495;28;19958;-73
2022/08/19 06:32:54;;;;;;;;;;;;;;;;;;21087508;28;19971;-60
2022/08/19 06:42:55;;;;;;;;;;;;;;;;;;21087932;28;19924;-66
2022/08/19 06:52:57;;;;;;;;;;;;;;;;;;21087346;28;19928;-55
2022/08/19 07:03:00;;;;;;;;;;;;;;;;;;21085771;28;20003;-52
2022/08/19 07:13:02;;;;;;;;;;;;;;;;;;21083970;28;19924;-72
2022/08/19 07:23:04;;;;;;;;;;;;;;;;;;21085222;28;19969;-74
2022/08/19 07:33:06;;;;;;;;;;;;;;;;;;21083999;28;20018;-52
2022/08/19 07:43:08;;;;;;;;;;;;;;;;;;21082312;28;19928;-57
2022/08/19 07:53:09;;;;;;;;;;;;;;;;;;21080721;28;19971;-59
2022/08/19 08:03:11;;;;;;;;;;;;;;;;;;21080486;28;20005;-62
2022/08/19 08:13:12;;;;;;;;;;;;;;;;;;21080114;28;19924;-60
2022/08/19 08:23:24;;;;;;;;;;;;;;;;;;21080092;28;19987;-53
2022/08/19 08:33:27;;;;;;;;;;;;;;;;;;20995625;28;19935;-57
2022/08/19 08:43:30;;;;;;;;;;;;;;;;;;20999968;28;19931;-55
2022/08/19 08:53:32;;;;;;;;;;;;;;;;;;21011321;28;20020;-61
2022/08/19 09:03:34;;;;;;;;;;;;;;;;;;21009931;28;20039;-67
2022/08/19 09:13:36;;;;;;;;;;;;;;;;;;21009967;28;19924;-56
2022/08/19 09:23:42;;;;;;;;;;;;;;;;;;21007451;28;20345;-56
2022/08/19 09:33:44;;;;;;;;;;;;;;;;;;21006403;28;19924;-64
2022/08/19 09:43:46;;;;;;;;;;;;;;;;;;21043841;28;19924;-64
2022/08/19 09:53:49;;;;;;;;;;;;;;;;;;21086849;28;20137;-56
2022/08/19 10:03:53;;;;;;;;;;;;;;;;;;21088082;28;19977;-55
2022/08/19 10:13:55;;;;;;;;;;;;;;;;;;21087116;28;19941;-63
2022/08/19 10:23:57;;;;;;;;;;;;;;;;;;21083815;28;19931;-57
2022/08/19 10:33:59;;;;;;;;;;;;;;;;;;21083747;28;20280;-58
2022/08/19 10:44:04;;;;;;;;;;;;;;;;;;21082774;28;19928;-58
2022/08/19 10:54:06;;;;;;;;;;;;;;;;;;21084752;28;19931;-63
2022/08/19 11:04:10;;;;;;;;;;;;;;;;;;21042581;28;19928;-53
2022/08/19 11:14:13;;;;;;;;;;;;;;;;;;21083388;28;20213;-66
2022/08/19 11:24:16;;;;;;;;;;;;;;;;;;21083644;28;20404;-66
2022/08/19 11:34:18;;;;;;;;;;;;;;;;;;21081841;28;19928;-57
2022/08/19 11:44:20;;;;;;;;;;;;;;;;;;21081586;28;20003;-64
2022/08/19 11:54:22;;;;;;;;;;;;;;;;;;21080920;28;19927;-60
2022/08/19 12:04:26;;;;;;;;;;;;;;;;;;21080189;28;20201;-64
2022/08/19 12:14:30;;;;;;;;;;;;;;;;;;21081891;28;19932;-61
2022/08/19 12:24:33;;;;;;;;;;;;;;;;;;21080853;28;20290;-64
2022/08/19 12:34:36;;;;;;;;;;;;;;;;;;21079775;28;19924;-63
2022/08/19 12:44:39;;;;;;;;;;;;;;;;;;21079555;28;20028;-62
2022/08/19 12:54:41;;;;;;;;;;;;;;;;;;21077721;28;20027;-56
2022/08/19 13:04:42;;;;;;;;;;;;;;;;;;21077637;28;19924;-56
2022/08/19 13:14:49;;;;;;;;;;;;;;;;;;21077321;28;19924;-54
2022/08/19 13:24:54;;;;;;;;;;;;;;;;;;21076446;28;19928;-58
2022/08/19 13:34:56;;;;;;;;;;;;;;;;;;21089154;28;19932;-55
2022/08/19 13:44:58;;;;;;;;;;;;;;;;;;21090817;28;19924;-55
2022/08/19 13:55:00;;;;;;;;;;;;;;;;;;21090162;28;20396;-56
2022/08/19 14:05:02;;;;;;;;;;;;;;;;;;21088945;28;19924;-56
2022/08/19 14:15:04;;;;;;;;;;;;;;;;;;21088375;28;20371;-54
2022/08/19 14:25:07;;;;;;;;;;;;;;;;;;21087041;28;19924;-57
2022/08/19 14:35:09;;;;;;;;;;;;;;;;;;21087739;28;20022;-56
2022/08/19 14:45:11;;;;;;;;;;;;;;;;;;21085832;28;19928;-55
2022/08/19 14:55:12;;;;;;;;;;;;;;;;;;21086639;28;19967;-58
2022/08/19 15:05:14;;;;;;;;;;;;;;;;;;21085346;28;19986;-61
2022/08/19 15:15:17;;;;;;;;;;;;;;;;;;21089724;28;19969;-62
2022/08/19 15:25:19;;;;;;;;;;;;;;;;;;21086217;28;19928;-63
2022/08/19 15:35:20;;;;;;;;;;;;;;;;;;21082890;28;20325;-59
2022/08/19 15:45:27;;;;;;;;;;;;;;;;;;21081853;28;19924;-62
2022/08/19 15:55:29;;;;;;;;;;;;;;;;;;21080265;28;19928;-62
2022/08/19 16:15:55;;;;;;;;;;;;;;;;;;21079545;28;19924;-64
2022/08/19 16:25:57;;;;;;;;;;;;;;;;;;21079163;28;19924;-60
2022/08/19 16:35:59;;;;;;;;;;;;;;;;;;21079142;28;19928;-61
2022/08/19 16:46:01;;;;;;;;;;;;;;;;;;21078985;28;20315;-62
2022/08/19 16:56:03;;;;;;;;;;;;;;;;;;21079012;28;19963;-63
2022/08/19 17:06:04;;;;;;;;;;;;;;;;;;21084462;28;19971;-61
2022/08/19 17:16:06;;;;;;;;;;;;;;;;;;21092659;28;19924;-60
2022/08/19 17:26:08;;;;;;;;;;;;;;;;;;21091978;28;19924;-58
2022/08/19 17:36:10;;;;;;;;;;;;;;;;;;21091707;28;19924;-63
2022/08/19 17:46:16;;;;;;;;;;;;;;;;;;21088689;28;19932;-64
2022/08/19 17:56:19;;;;;;;;;;;;;;;;;;21089603;28;19928;-64
2022/08/19 18:06:21;;;;;;;;;;;;;;;;;;21089004;28;19924;-62
2022/08/19 18:16:23;;;;;;;;;;;;;;;;;;21089100;28;19974;-59
2022/08/19 18:26:25;;;;;;;;;;;;;;;;;;21088243;28;20007;-61
2022/08/19 18:36:31;;;;;;;;;;;;;;;;;;21086355;28;19971;-55
2022/08/19 18:56:54;;;;;;;;;;;;;;;;;;21084666;28;19924;-61
2022/08/19 19:06:56;;;;;;;;;;;;;;;;;;21083930;28;19932;-62
2022/08/19 19:16:58;;;;;;;;;;;;;;;;;;21083383;28;19967;-63
2022/08/19 19:27:04;;;;;;;;;;;;;;;;;;21082636;28;19924;-64
2022/08/19 19:37:05;;;;;;;;;;;;;;;;;;21083875;28;20008;-60
2022/08/19 19:47:07;;;;;;;;;;;;;;;;;;21081755;28;19923;-62
2022/08/19 19:57:10;;;;;;;;;;;;;;;;;;21080774;28;20419;-65
2022/08/19 20:07:11;;;;;;;;;;;;;;;;;;21080452;28;20346;-63
2022/08/19 20:17:14;;;;;;;;;;;;;;;;;;21080062;28;20010;-63
2022/08/19 20:27:18;;;;;;;;;;;;;;;;;;21079860;28;19931;-66
2022/08/19 20:37:20;;;;;;;;;;;;;;;;;;21080797;28;19924;-62
2022/08/19 20:47:23;;;;;;;;;;;;;;;;;;21096383;28;20342;-65
2022/08/19 20:57:25;;;;;;;;;;;;;;;;;;21096039;28;20295;-67
2022/08/19 21:07:27;;;;;;;;;;;;;;;;;;21095060;28;19924;-65
2022/08/19 21:17:30;;;;;;;;;;;;;;;;;;21094991;28;19934;-64
2022/08/19 21:27:32;;;;;;;;;;;;;;;;;;21092748;28;20379;-64
2022/08/19 21:37:37;;;;;;;;;;;;;;;;;;21092583;28;19931;-64
2022/08/19 21:47:39;;;;;;;;;;;;;;;;;;21095053;28;20303;-61
2022/08/19 21:57:41;;;;;;;;;;;;;;;;;;21091743;28;20459;-63
2022/08/19 22:07:43;;;;;;;;;;;;;;;;;;21091951;28;19924;-64
2022/08/19 22:17:45;;;;;;;;;;;;;;;;;;21090639;28;19977;-61
2022/08/19 22:27:47;;;;;;;;;;;;;;;;;;21090038;28;20032;-62
2022/08/19 22:37:50;;;;;;;;;;;;;;;;;;21089454;28;19928;-63
2022/08/19 22:47:52;;;;;;;;;;;;;;;;;;21087376;28;20289;-57
2022/08/19 22:57:54;;;;;;;;;;;;;;;;;;21087060;28;20336;-55
2022/08/19 23:07:56;;;;;;;;;;;;;;;;;;21086463;28;19934;-57
2022/08/19 23:17:58;;;;;;;;;;;;;;;;;;21087760;28;19935;-59
2022/08/19 23:38:22;;;;;;;;;;;;;;;;;;21084148;28;19928;-56
2022/08/19 23:48:24;;;;;;;;;;;;;;;;;;21083664;28;19977;-54
2022/08/19 23:58:26;;;;;;;;;;;;;;;;;;21092386;28;19938;-55
